Time;durP1;ratioP1;P1;durP2;ratioP2;P2;SDS_P1;SDS_P2;PMS_P1;PMS_P2;Temp;Humidity;BMP_temperature;BMP_pressure;BME280_temperature;BME280_humidity;BME280_pressure;Samples;Min_cycle;Max_cycle;Signal;HPM_P1;HPM_P2
2021/09/10 00:00:12;;;;;;;4.90;4.50;;;;;;;;;;5110183;28;24971;-60
2021/09/10 00:02:37;;;;;;;4.70;4.40;;;;;;;;;;5109884;27;24482;-60
2021/09/10 00:05:03;;;;;;;5.60;5.00;;;;;;;;;;5109870;28;24440;-60
2021/09/10 00:07:28;;;;;;;5.07;4.68;;;;;;;;;;5109806;28;25031;-59
2021/09/10 00:09:54;;;;;;;5.30;4.80;;;;;;;;;;5110123;28;24417;-59
2021/09/10 00:12:19;;;;;;;4.70;4.40;;;;;;;;;;5110685;27;24759;-59
2021/09/10 00:14:44;;;;;;;5.00;4.60;;;;;;;;;;5109246;27;24825;-59
2021/09/10 00:17:09;;;;;;;4.60;4.20;;;;;;;;;;5110315;28;24406;-58
2021/09/10 00:19:34;;;;;;;4.40;4.10;;;;;;;;;;5110313;28;24463;-59
2021/09/10 00:21:59;;;;;;;4.88;4.40;;;;;;;;;;5109768;28;24990;-58
2021/09/10 00:24:25;;;;;;;5.30;4.85;;;;;;;;;;5110383;27;24436;-59
2021/09/10 00:26:50;;;;;;;4.47;4.07;;;;;;;;;;5090972;28;24475;-59
2021/09/10 00:29:15;;;;;;;5.00;4.60;;;;;;;;;;5109108;28;24993;-59
2021/09/10 00:31:40;;;;;;;6.40;4.90;;;;;;;;;;5109995;28;24410;-59
2021/09/10 00:34:05;;;;;;;4.50;4.20;;;;;;;;;;5109402;28;24764;-59
2021/09/10 00:36:30;;;;;;;4.85;4.45;;;;;;;;;;5116129;27;24424;-59
2021/09/10 00:38:56;;;;;;;4.93;4.53;;;;;;;;;;5108940;28;24795;-59
2021/09/10 00:41:21;;;;;;;4.13;3.83;;;;;;;;;;5109742;28;24466;-59
2021/09/10 00:43:46;;;;;;;4.67;4.27;;;;;;;;;;5109166;28;24931;-60
2021/09/10 00:46:11;;;;;;;5.30;4.80;;;;;;;;;;5109524;28;25341;-59
2021/09/10 00:48:39;;;;;;;5.27;4.77;;;;;;;;;;5110409;27;24943;-59
2021/09/10 00:51:04;;;;;;;4.80;4.30;;;;;;;;;;5108956;28;24436;-59
2021/09/10 00:53:29;;;;;;;4.80;4.40;;;;;;;;;;5109335;28;24417;-59
2021/09/10 00:55:54;;;;;;;4.88;4.40;;;;;;;;;;5109190;28;24527;-59
2021/09/10 00:58:19;;;;;;;4.30;4.00;;;;;;;;;;5108458;28;24970;-59
2021/09/10 01:00:44;;;;;;;4.70;4.30;;;;;;;;;;5112030;27;24457;-59
2021/09/10 01:03:10;;;;;;;4.43;4.03;;;;;;;;;;5110214;28;24417;-59
2021/09/10 01:05:35;;;;;;;4.25;3.95;;;;;;;;;;5108798;28;24563;-59
2021/09/10 01:08:02;;;;;;;5.00;4.50;;;;;;;;;;5108854;28;24959;-59
2021/09/10 01:10:27;;;;;;;4.10;3.80;;;;;;;;;;5109345;28;24814;-59
2021/09/10 01:12:53;;;;;;;4.80;4.40;;;;;;;;;;5108877;28;25018;-59
2021/09/10 01:15:19;;;;;;;4.10;3.80;;;;;;;;;;5109833;27;24978;-59
2021/09/10 01:17:44;;;;;;;4.70;3.87;;;;;;;;;;5108761;28;24418;-59
2021/09/10 01:20:10;;;;;;;4.00;3.70;;;;;;;;;;5108978;28;24560;-59
2021/09/10 01:22:35;;;;;;;3.80;3.50;;;;;;;;;;5109059;27;24436;-59
2021/09/10 01:25:11;;;;;;;4.45;4.05;;;;;;;;;;5089508;28;25054;-59
2021/09/10 01:27:37;;;;;;;6.00;4.20;;;;;;;;;;5109785;28;24418;-59
2021/09/10 01:30:04;;;;;;;4.15;3.75;;;;;;;;;;5108127;28;25117;-59
2021/09/10 01:32:29;;;;;;;4.38;3.97;;;;;;;;;;5108808;27;24903;-60
2021/09/10 01:34:54;;;;;;;4.32;3.92;;;;;;;;;;5108888;28;24441;-59
2021/09/10 01:37:19;;;;;;;4.32;3.92;;;;;;;;;;5108323;28;24409;-58
2021/09/10 01:39:45;;;;;;;4.00;3.70;;;;;;;;;;5108308;28;24406;-58
2021/09/10 01:42:10;;;;;;;4.63;4.23;;;;;;;;;;5112005;27;25023;-58
2021/09/10 01:44:35;;;;;;;5.60;4.03;;;;;;;;;;5109893;27;24404;-58
2021/09/10 01:47:00;;;;;;;4.47;4.07;;;;;;;;;;5106594;28;24432;-59
2021/09/10 01:49:25;;;;;;;4.20;3.90;;;;;;;;;;5107978;28;24806;-58
2021/09/10 01:51:51;;;;;;;4.60;3.92;;;;;;;;;;5108707;28;24974;-58
2021/09/10 01:54:16;;;;;;;5.18;4.10;;;;;;;;;;5117616;27;25000;-58
2021/09/10 01:56:41;;;;;;;4.00;3.70;;;;;;;;;;5107784;28;24449;-59
2021/09/10 01:59:06;;;;;;;4.47;3.55;;;;;;;;;;5107435;28;24417;-59
2021/09/10 02:01:31;;;;;;;4.57;3.80;;;;;;;;;;5108187;28;24425;-58
2021/09/10 02:03:57;;;;;;;4.30;3.90;;;;;;;;;;5108230;28;24838;-58
2021/09/10 02:06:23;;;;;;;4.00;3.60;;;;;;;;;;5107418;28;24494;-58
2021/09/10 02:08:48;;;;;;;4.00;3.70;;;;;;;;;;5108135;28;24470;-58
2021/09/10 02:11:13;;;;;;;5.07;4.57;;;;;;;;;;5107523;28;24527;-58
2021/09/10 02:13:38;;;;;;;5.00;4.20;;;;;;;;;;5108404;28;24957;-58
2021/09/10 02:16:04;;;;;;;3.77;3.47;;;;;;;;;;5107231;28;24935;-59
2021/09/10 02:18:29;;;;;;;3.80;3.50;;;;;;;;;;5115096;27;24429;-58
2021/09/10 02:20:54;;;;;;;3.80;3.50;;;;;;;;;;5108144;28;24990;-59
2021/09/10 02:23:19;;;;;;;4.50;4.10;;;;;;;;;;5108309;28;24517;-59
2021/09/10 02:25:44;;;;;;;4.05;3.65;;;;;;;;;;5089533;28;24433;-59
2021/09/10 02:28:09;;;;;;;4.17;3.77;;;;;;;;;;5107730;28;24983;-59
2021/09/10 02:30:35;;;;;;;3.83;3.53;;;;;;;;;;5111443;27;24417;-58
2021/09/10 02:33:00;;;;;;;3.50;3.20;;;;;;;;;;5107946;28;24398;-59
2021/09/10 02:35:25;;;;;;;4.80;3.30;;;;;;;;;;5107640;28;24445;-59
2021/09/10 02:37:50;;;;;;;3.60;3.30;;;;;;;;;;5108168;28;25030;-58
2021/09/10 02:40:16;;;;;;;3.90;3.60;;;;;;;;;;5107065;28;24418;-58
2021/09/10 02:42:41;;;;;;;4.22;3.92;;;;;;;;;;5106704;28;24446;-58
2021/09/10 02:45:06;;;;;;;4.20;3.80;;;;;;;;;;5107383;28;24949;-58
2021/09/10 02:47:31;;;;;;;5.27;3.83;;;;;;;;;;5107436;28;24593;-58
2021/09/10 02:49:56;;;;;;;4.00;3.70;;;;;;;;;;5107510;28;24414;-59
2021/09/10 02:52:21;;;;;;;4.20;3.60;;;;;;;;;;5107442;28;24489;-58
2021/09/10 02:54:47;;;;;;;4.10;3.80;;;;;;;;;;5107124;28;24421;-59
2021/09/10 02:57:12;;;;;;;4.77;3.83;;;;;;;;;;5107066;28;24772;-58
2021/09/10 02:59:37;;;;;;;3.20;3.00;;;;;;;;;;5107454;28;24943;-58
2021/09/10 03:02:02;;;;;;;3.83;3.53;;;;;;;;;;5107516;28;24405;-59
2021/09/10 03:04:27;;;;;;;3.80;3.50;;;;;;;;;;5107067;28;24413;-59
2021/09/10 03:06:52;;;;;;;3.78;3.47;;;;;;;;;;5106601;28;24437;-59
2021/09/10 03:09:17;;;;;;;4.17;3.87;;;;;;;;;;5107012;28;24501;-59
2021/09/10 03:11:43;;;;;;;4.47;4.17;;;;;;;;;;5111170;28;24914;-59
2021/09/10 03:14:08;;;;;;;4.40;4.00;;;;;;;;;;5111069;28;24471;-59
2021/09/10 03:16:33;;;;;;;4.13;3.73;;;;;;;;;;5110758;28;25128;-59
2021/09/10 03:18:59;;;;;;;4.70;3.70;;;;;;;;;;5111599;28;24390;-59
2021/09/10 03:21:24;;;;;;;3.57;3.20;;;;;;;;;;5111514;27;25165;-59
2021/09/10 03:23:49;;;;;;;3.70;3.40;;;;;;;;;;5110651;28;24420;-60
2021/09/10 03:26:14;;;;;;;3.70;3.40;;;;;;;;;;5109909;28;24476;-60
2021/09/10 03:28:39;;;;;;;3.80;3.50;;;;;;;;;;5111009;28;24420;-59
2021/09/10 03:31:04;;;;;;;4.05;3.67;;;;;;;;;;5110570;28;24424;-59
2021/09/10 03:33:29;;;;;;;3.70;3.50;;;;;;;;;;5110957;27;24957;-59
2021/09/10 03:35:55;;;;;;;3.90;3.60;;;;;;;;;;5110589;28;24746;-59
2021/09/10 03:38:20;;;;;;;4.47;3.57;;;;;;;;;;5110818;28;24454;-59
2021/09/10 03:40:45;;;;;;;3.75;3.45;;;;;;;;;;5107457;27;24498;-58
2021/09/10 03:43:10;;;;;;;3.70;3.40;;;;;;;;;;5110208;28;24498;-59
2021/09/10 03:45:35;;;;;;;3.43;3.13;;;;;;;;;;5110635;27;24428;-58
2021/09/10 03:48:01;;;;;;;4.83;3.90;;;;;;;;;;5110676;28;24394;-58
2021/09/10 03:50:26;;;;;;;3.60;3.30;;;;;;;;;;5102844;28;24441;-58
2021/09/10 03:52:51;;;;;;;3.67;3.38;;;;;;;;;;5110350;28;24424;-58
2021/09/10 03:55:17;;;;;;;3.47;3.17;;;;;;;;;;5105759;28;24422;-58
2021/09/10 03:57:42;;;;;;;3.45;3.15;;;;;;;;;;5107120;28;25064;-58
2021/09/10 04:00:08;;;;;;;3.72;3.42;;;;;;;;;;5128003;27;24417;-58
2021/09/10 04:02:33;;;;;;;3.65;3.40;;;;;;;;;;5119044;27;24437;-58
2021/09/10 04:04:58;;;;;;;3.65;3.35;;;;;;;;;;5109646;28;24474;-58
2021/09/10 04:07:24;;;;;;;3.58;3.28;;;;;;;;;;5108237;28;24970;-58
2021/09/10 04:09:49;;;;;;;3.97;3.67;;;;;;;;;;5102353;28;24406;-58
2021/09/10 04:12:14;;;;;;;3.40;3.20;;;;;;;;;;5110798;27;24462;-58
2021/09/10 04:14:39;;;;;;;4.50;4.10;;;;;;;;;;5109027;28;24479;-58
2021/09/10 04:17:04;;;;;;;3.78;3.47;;;;;;;;;;5109321;28;24485;-58
2021/09/10 04:19:29;;;;;;;3.30;2.90;;;;;;;;;;5117757;27;24413;-59
2021/09/10 04:21:54;;;;;;;3.40;3.10;;;;;;;;;;5107877;28;24406;-58
2021/09/10 04:24:20;;;;;;;3.50;3.30;;;;;;;;;;5110571;27;24732;-58
2021/09/10 04:26:45;;;;;;;3.80;3.50;;;;;;;;;;5109129;28;24449;-58
2021/09/10 04:29:10;;;;;;;3.90;3.50;;;;;;;;;;5108875;28;24417;-59
2021/09/10 04:31:36;;;;;;;3.80;3.50;;;;;;;;;;5108739;28;24462;-58
2021/09/10 04:34:01;;;;;;;3.50;3.20;;;;;;;;;;5105893;28;24413;-59
2021/09/10 04:36:26;;;;;;;4.30;3.90;;;;;;;;;;5109941;27;24432;-59
2021/09/10 04:38:51;;;;;;;3.90;3.60;;;;;;;;;;5095655;28;24426;-59
2021/09/10 04:41:17;;;;;;;3.92;3.53;;;;;;;;;;5088319;27;24429;-59
2021/09/10 04:43:42;;;;;;;4.30;3.77;;;;;;;;;;5106343;28;24413;-58
2021/09/10 04:46:07;;;;;;;3.70;3.40;;;;;;;;;;5105756;28;24528;-58
2021/09/10 04:48:32;;;;;;;3.70;3.30;;;;;;;;;;5109726;27;24421;-58
2021/09/10 04:50:57;;;;;;;4.13;3.72;;;;;;;;;;5106590;28;24608;-58
2021/09/10 04:53:22;;;;;;;4.32;3.92;;;;;;;;;;5106149;28;24876;-58
2021/09/10 04:55:48;;;;;;;5.87;4.00;;;;;;;;;;5105767;28;24705;-58
2021/09/10 04:58:13;;;;;;;4.50;3.50;;;;;;;;;;5105866;28;24915;-58
2021/09/10 05:00:38;;;;;;;4.10;3.70;;;;;;;;;;5105471;28;24414;-59
2021/09/10 05:03:03;;;;;;;4.10;3.80;;;;;;;;;;5087673;28;24421;-59
2021/09/10 05:05:28;;;;;;;4.60;4.00;;;;;;;;;;5090643;28;25082;-59
2021/09/10 05:07:54;;;;;;;3.90;3.33;;;;;;;;;;5102759;27;24469;-58
2021/09/10 05:10:19;;;;;;;3.60;3.30;;;;;;;;;;5103563;28;24436;-59
2021/09/10 05:12:45;;;;;;;3.70;3.27;;;;;;;;;;5099574;28;24547;-58
2021/09/10 05:15:10;;;;;;;3.60;3.30;;;;;;;;;;5095906;28;24504;-60
2021/09/10 05:17:35;;;;;;;4.10;3.80;;;;;;;;;;5104993;27;25160;-59
2021/09/10 05:20:02;;;;;;;4.00;3.60;;;;;;;;;;5106444;28;24470;-59
2021/09/10 05:22:28;;;;;;;3.50;3.20;;;;;;;;;;5107743;28;24414;-59
2021/09/10 05:24:53;;;;;;;4.03;3.60;;;;;;;;;;5106449;27;24414;-60
2021/09/10 05:27:18;;;;;;;3.70;3.40;;;;;;;;;;5108280;28;24385;-60
2021/09/10 05:29:43;;;;;;;4.00;3.23;;;;;;;;;;5108078;28;24481;-59
2021/09/10 05:32:08;;;;;;;4.43;3.72;;;;;;;;;;5105938;28;24743;-59
2021/09/10 05:34:33;;;;;;;4.77;3.80;;;;;;;;;;5108579;28;24378;-60
2021/09/10 05:36:59;;;;;;;4.57;3.88;;;;;;;;;;5108316;28;24385;-60
2021/09/10 05:39:24;;;;;;;4.13;3.70;;;;;;;;;;5108079;28;24474;-59
2021/09/10 05:41:49;;;;;;;3.55;3.25;;;;;;;;;;5113767;27;24470;-59
2021/09/10 05:44:14;;;;;;;4.80;3.60;;;;;;;;;;5109199;27;24409;-60
2021/09/10 05:46:39;;;;;;;3.53;3.25;;;;;;;;;;5090127;28;24869;-59
2021/09/10 05:49:05;;;;;;;3.90;3.60;;;;;;;;;;5104620;28;24939;-59
2021/09/10 05:51:30;;;;;;;3.87;3.47;;;;;;;;;;5122103;27;25070;-59
2021/09/10 05:53:55;;;;;;;3.90;3.60;;;;;;;;;;5125596;27;24399;-60
2021/09/10 05:56:20;;;;;;;3.50;3.20;;;;;;;;;;5108907;27;24413;-60
2021/09/10 05:58:45;;;;;;;4.17;3.87;;;;;;;;;;5105138;28;24410;-59
2021/09/10 06:01:11;;;;;;;4.10;3.78;;;;;;;;;;5106023;27;24463;-59
2021/09/10 06:03:36;;;;;;;4.07;3.60;;;;;;;;;;5105314;28;24412;-59
2021/09/10 06:06:01;;;;;;;4.80;4.30;;;;;;;;;;5104707;28;24433;-59
2021/09/10 06:08:26;;;;;;;3.57;3.37;;;;;;;;;;5104446;28;24409;-59
2021/09/10 06:10:51;;;;;;;4.70;4.22;;;;;;;;;;5105127;27;24416;-60
2021/09/10 06:13:16;;;;;;;4.03;3.60;;;;;;;;;;5105098;28;24389;-59
2021/09/10 06:15:42;;;;;;;3.60;3.30;;;;;;;;;;5105048;28;24463;-59
2021/09/10 06:18:07;;;;;;;4.60;4.20;;;;;;;;;;5103054;28;24414;-60
2021/09/10 06:20:32;;;;;;;4.40;3.75;;;;;;;;;;5104657;28;24463;-60
2021/09/10 06:22:57;;;;;;;4.20;3.80;;;;;;;;;;5115938;27;24427;-60
2021/09/10 06:25:24;;;;;;;3.70;3.40;;;;;;;;;;5099605;28;24473;-60
2021/09/10 06:27:50;;;;;;;3.72;3.42;;;;;;;;;;5104834;28;24397;-59
2021/09/10 06:30:15;;;;;;;3.73;3.43;;;;;;;;;;5104191;28;24382;-60
2021/09/10 06:32:40;;;;;;;4.53;3.80;;;;;;;;;;5104880;28;24481;-60
2021/09/10 06:35:05;;;;;;;4.68;3.97;;;;;;;;;;5105120;28;24466;-59
2021/09/10 06:37:31;;;;;;;4.30;3.90;;;;;;;;;;5104722;28;24466;-60
2021/09/10 06:39:56;;;;;;;4.37;3.90;;;;;;;;;;5107067;28;24970;-60
2021/09/10 06:42:21;;;;;;;3.85;3.55;;;;;;;;;;5106696;28;24954;-59
2021/09/10 06:44:47;;;;;;;4.40;4.00;;;;;;;;;;5113063;27;25005;-60
2021/09/10 06:47:12;;;;;;;3.75;3.50;;;;;;;;;;5110905;28;24520;-59
2021/09/10 06:49:37;;;;;;;4.43;4.03;;;;;;;;;;5107338;28;24516;-59
2021/09/10 06:52:03;;;;;;;4.20;3.90;;;;;;;;;;5103733;28;24410;-59
2021/09/10 06:54:28;;;;;;;4.03;3.73;;;;;;;;;;5108282;28;24440;-60
2021/09/10 06:56:53;;;;;;;4.03;3.72;;;;;;;;;;5107160;28;24413;-59
2021/09/10 06:59:19;;;;;;;5.38;4.30;;;;;;;;;;5107319;28;24390;-60
2021/09/10 07:01:45;;;;;;;3.50;3.20;;;;;;;;;;5107575;28;24393;-59
2021/09/10 07:04:10;;;;;;;3.88;3.50;;;;;;;;;;5108598;28;24788;-60
2021/09/10 07:06:35;;;;;;;4.30;3.90;;;;;;;;;;5107113;28;24443;-59
2021/09/10 07:09:00;;;;;;;4.07;3.67;;;;;;;;;;5107363;28;24386;-60
2021/09/10 07:11:26;;;;;;;4.20;3.50;;;;;;;;;;5107255;28;24474;-59
2021/09/10 07:13:51;;;;;;;3.70;3.40;;;;;;;;;;5108652;28;24486;-60
2021/09/10 07:16:16;;;;;;;3.20;3.00;;;;;;;;;;5107401;28;24543;-59
2021/09/10 07:18:41;;;;;;;4.17;3.77;;;;;;;;;;5107084;28;24446;-59
2021/09/10 07:21:07;;;;;;;4.27;3.87;;;;;;;;;;5107147;28;24843;-59
2021/09/10 07:23:32;;;;;;;3.70;3.30;;;;;;;;;;5107076;28;24386;-59
2021/09/10 07:26:02;;;;;;;4.72;4.03;;;;;;;;;;5109769;28;24430;-59
2021/09/10 07:28:27;;;;;;;4.05;3.65;;;;;;;;;;5124680;28;24413;-58
2021/09/10 07:30:52;;;;;;;3.40;3.20;;;;;;;;;;5127581;28;24392;-58
2021/09/10 07:33:17;;;;;;;4.05;3.65;;;;;;;;;;5127691;28;24385;-59
2021/09/10 07:35:43;;;;;;;5.70;3.55;;;;;;;;;;5127549;28;24396;-59
2021/09/10 07:38:08;;;;;;;4.17;3.77;;;;;;;;;;5112231;28;24421;-59
2021/09/10 07:40:33;;;;;;;5.50;3.43;;;;;;;;;;5106619;28;24753;-59
2021/09/10 07:42:58;;;;;;;4.13;3.70;;;;;;;;;;5107394;28;24389;-59
2021/09/10 07:45:23;;;;;;;4.70;4.30;;;;;;;;;;5107042;28;24418;-58
2021/09/10 07:47:48;;;;;;;3.80;3.50;;;;;;;;;;5114513;28;25016;-58
2021/09/10 07:50:14;;;;;;;4.17;3.50;;;;;;;;;;5110607;28;24783;-60
2021/09/10 07:52:39;;;;;;;4.30;3.90;;;;;;;;;;5107132;28;24378;-57
2021/09/10 07:55:04;;;;;;;5.10;4.60;;;;;;;;;;5107466;28;24417;-59
2021/09/10 07:57:29;;;;;;;4.50;3.57;;;;;;;;;;5110329;28;24409;-59
2021/09/10 07:59:58;;;;;;;4.10;3.80;;;;;;;;;;5111166;27;24954;-59
2021/09/10 08:02:25;;;;;;;4.78;4.18;;;;;;;;;;5110138;28;24418;-59
2021/09/10 08:04:51;;;;;;;4.70;4.20;;;;;;;;;;5110518;28;24455;-59
2021/09/10 08:07:16;;;;;;;4.32;3.92;;;;;;;;;;5110217;28;24817;-59
2021/09/10 08:09:41;;;;;;;4.50;4.10;;;;;;;;;;5109839;28;24423;-59
2021/09/10 08:12:06;;;;;;;4.35;3.92;;;;;;;;;;5112844;27;24980;-60
2021/09/10 08:14:31;;;;;;;3.50;3.20;;;;;;;;;;5131167;27;24454;-59
2021/09/10 08:16:56;;;;;;;4.47;4.07;;;;;;;;;;5127256;27;24405;-60
2021/09/10 08:19:21;;;;;;;4.00;3.50;;;;;;;;;;5109999;28;24397;-59
2021/09/10 08:21:47;;;;;;;3.93;3.63;;;;;;;;;;5110385;28;24382;-60
2021/09/10 08:24:12;;;;;;;4.00;3.60;;;;;;;;;;5110703;28;24853;-60
2021/09/10 08:26:37;;;;;;;4.20;3.80;;;;;;;;;;5129712;27;24836;-59
2021/09/10 08:29:02;;;;;;;4.30;3.87;;;;;;;;;;5130728;27;24385;-60
2021/09/10 08:31:27;;;;;;;4.60;4.20;;;;;;;;;;5130353;27;24396;-59
2021/09/10 08:33:53;;;;;;;3.72;3.42;;;;;;;;;;5130760;27;24477;-60
2021/09/10 08:36:18;;;;;;;3.60;3.30;;;;;;;;;;5130500;27;24983;-60
2021/09/10 08:38:43;;;;;;;4.10;3.80;;;;;;;;;;5120617;27;24417;-60
2021/09/10 08:41:11;;;;;;;4.20;3.90;;;;;;;;;;5109593;28;24390;-60
2021/09/10 08:43:44;;;;;;;3.97;3.67;;;;;;;;;;5109386;28;24525;-60
2021/09/10 08:46:09;;;;;;;3.60;3.30;;;;;;;;;;5117730;27;24490;-59
2021/09/10 08:48:35;;;;;;;4.40;4.00;;;;;;;;;;5129984;27;24632;-60
2021/09/10 08:51:00;;;;;;;3.83;3.60;;;;;;;;;;5116747;27;24425;-60
2021/09/10 08:53:25;;;;;;;5.10;4.40;;;;;;;;;;5109531;28;24393;-60
2021/09/10 08:55:50;;;;;;;3.90;3.60;;;;;;;;;;5111408;27;24496;-60
2021/09/10 08:58:15;;;;;;;3.87;3.57;;;;;;;;;;5130146;27;24396;-59
2021/09/10 09:00:41;;;;;;;3.70;3.40;;;;;;;;;;5129768;27;24426;-60
2021/09/10 09:03:07;;;;;;;6.40;4.10;;;;;;;;;;5130110;27;24397;-60
2021/09/10 09:05:34;;;;;;;3.45;3.25;;;;;;;;;;5129627;27;24413;-60
2021/09/10 09:08:03;;;;;;;3.63;3.42;;;;;;;;;;5126555;27;24411;-60
2021/09/10 09:10:36;;;;;;;3.90;3.50;;;;;;;;;;5129721;27;24400;-59
2021/09/10 09:13:11;;;;;;;4.10;3.80;;;;;;;;;;5129625;27;24425;-60
2021/09/10 09:15:36;;;;;;;4.73;4.20;;;;;;;;;;5129663;27;24845;-62
2021/09/10 09:18:01;;;;;;;4.40;4.00;;;;;;;;;;5115581;27;24405;-59
2021/09/10 09:20:26;;;;;;;4.60;4.20;;;;;;;;;;5108761;28;25205;-59
2021/09/10 09:22:56;;;;;;;3.67;3.37;;;;;;;;;;5109134;28;25048;-60
2021/09/10 09:25:25;;;;;;;4.25;3.67;;;;;;;;;;5108687;28;24958;-60
2021/09/10 09:27:50;;;;;;;4.30;4.00;;;;;;;;;;5109527;27;24496;-60
2021/09/10 09:30:32;;;;;;;4.35;4.05;;;;;;;;;;5109176;28;25108;-59
2021/09/10 09:32:58;;;;;;;4.40;4.10;;;;;;;;;;5108640;28;24405;-60
2021/09/10 09:35:23;;;;;;;4.57;4.18;;;;;;;;;;5108751;28;24397;-60
2021/09/10 09:37:48;;;;;;;4.70;4.27;;;;;;;;;;5109753;27;24424;-60
2021/09/10 09:40:13;;;;;;;4.00;3.70;;;;;;;;;;5129153;27;24997;-59
2021/09/10 09:42:38;;;;;;;4.93;4.50;;;;;;;;;;5129051;27;24420;-59
2021/09/10 09:45:08;;;;;;;4.80;4.10;;;;;;;;;;5124907;27;24413;-60
2021/09/10 09:47:34;;;;;;;4.72;4.32;;;;;;;;;;5108519;28;24782;-59
2021/09/10 09:50:07;;;;;;;5.13;4.67;;;;;;;;;;5108370;27;24421;-59
2021/09/10 09:52:32;;;;;;;5.47;4.93;;;;;;;;;;5108378;28;24389;-60
2021/09/10 09:54:57;;;;;;;7.33;5.23;;;;;;;;;;5108525;28;24396;-59
2021/09/10 09:57:23;;;;;;;5.93;5.43;;;;;;;;;;5115568;27;24508;-60
2021/09/10 09:59:48;;;;;;;5.95;5.45;;;;;;;;;;5119978;27;24413;-60
2021/09/10 10:02:13;;;;;;;6.67;5.53;;;;;;;;;;5108209;28;24933;-60
2021/09/10 10:04:38;;;;;;;5.30;4.80;;;;;;;;;;5107832;28;24390;-60
2021/09/10 10:07:04;;;;;;;5.20;4.90;;;;;;;;;;5109139;27;24433;-60
2021/09/10 10:09:30;;;;;;;5.50;5.10;;;;;;;;;;5128280;27;25030;-60
2021/09/10 10:11:58;;;;;;;5.10;4.70;;;;;;;;;;5129305;27;24740;-60
2021/09/10 10:14:32;;;;;;;5.72;5.18;;;;;;;;;;5114890;27;24485;-60
2021/09/10 10:16:59;;;;;;;6.00;5.50;;;;;;;;;;5108026;28;24444;-60
2021/09/10 10:19:24;;;;;;;5.28;4.88;;;;;;;;;;5108042;28;24405;-60
2021/09/10 10:21:51;;;;;;;5.40;5.00;;;;;;;;;;5108091;28;24405;-60
2021/09/10 10:24:35;;;;;;;5.05;4.70;;;;;;;;;;5108044;28;24385;-60
2021/09/10 10:27:20;;;;;;;5.95;5.45;;;;;;;;;;5107832;28;24409;-60
2021/09/10 10:29:45;;;;;;;6.28;5.68;;;;;;;;;;5108419;27;24418;-60
2021/09/10 10:32:10;;;;;;;5.30;4.90;;;;;;;;;;5107930;28;24439;-60
2021/09/10 10:34:55;;;;;;;6.38;5.88;;;;;;;;;;5107834;28;24457;-60
2021/09/10 10:37:35;;;;;;;5.53;5.13;;;;;;;;;;5107447;28;24413;-60
2021/09/10 10:40:19;;;;;;;5.40;5.00;;;;;;;;;;5119923;27;24501;-60
2021/09/10 10:42:48;;;;;;;5.70;5.30;;;;;;;;;;5113988;28;24413;-60
2021/09/10 10:45:13;;;;;;;5.70;5.30;;;;;;;;;;5107825;28;25105;-60
2021/09/10 10:47:38;;;;;;;6.00;5.50;;;;;;;;;;5107802;28;24439;-60
2021/09/10 10:50:03;;;;;;;5.60;5.10;;;;;;;;;;5108137;28;24780;-60
2021/09/10 10:52:30;;;;;;;7.50;5.20;;;;;;;;;;5107380;28;24437;-60
2021/09/10 10:55:14;;;;;;;6.43;5.82;;;;;;;;;;5107859;28;24382;-60
2021/09/10 10:57:39;;;;;;;6.25;5.82;;;;;;;;;;5107390;28;25080;-60
2021/09/10 11:00:24;;;;;;;5.40;5.00;;;;;;;;;;5108450;28;24434;-60
2021/09/10 11:02:49;;;;;;;5.85;5.35;;;;;;;;;;5107156;28;24406;-60
2021/09/10 11:05:16;;;;;;;5.40;5.00;;;;;;;;;;5107399;28;24740;-60
2021/09/10 11:07:42;;;;;;;5.57;5.18;;;;;;;;;;5107502;28;24424;-60
2021/09/10 11:10:11;;;;;;;6.27;5.77;;;;;;;;;;5107020;28;24990;-60
2021/09/10 11:12:38;;;;;;;5.50;5.10;;;;;;;;;;5125643;28;24405;-61
2021/09/10 11:15:20;;;;;;;5.80;5.38;;;;;;;;;;5128006;28;24391;-61
2021/09/10 11:17:55;;;;;;;5.70;5.30;;;;;;;;;;5127545;28;24383;-61
2021/09/10 11:20:28;;;;;;;5.90;5.40;;;;;;;;;;5127433;28;24930;-61
2021/09/10 11:22:53;;;;;;;5.82;5.32;;;;;;;;;;5126080;28;24409;-60
2021/09/10 11:25:18;;;;;;;5.40;5.00;;;;;;;;;;5127817;28;24420;-60
2021/09/10 11:27:44;;;;;;;6.80;6.20;;;;;;;;;;5127483;28;24773;-61
2021/09/10 11:30:10;;;;;;;6.30;5.70;;;;;;;;;;5128605;27;24500;-60
2021/09/10 11:32:36;;;;;;;6.40;5.90;;;;;;;;;;5129585;27;25022;-60
2021/09/10 11:35:01;;;;;;;6.10;5.60;;;;;;;;;;5123280;27;24406;-60
2021/09/10 11:37:27;;;;;;;5.43;5.03;;;;;;;;;;5111291;28;24381;-60
2021/09/10 11:39:53;;;;;;;5.80;5.30;;;;;;;;;;5110405;28;24498;-60
2021/09/10 11:42:38;;;;;;;5.70;5.30;;;;;;;;;;5111704;27;24825;-59
2021/09/10 11:45:05;;;;;;;5.40;5.00;;;;;;;;;;5111209;28;24424;-60
2021/09/10 11:47:31;;;;;;;4.80;4.50;;;;;;;;;;5110698;28;24389;-60
2021/09/10 11:49:56;;;;;;;5.50;5.10;;;;;;;;;;5110595;28;24418;-60
2021/09/10 11:52:32;;;;;;;5.50;5.10;;;;;;;;;;5117426;27;24453;-60
2021/09/10 11:55:15;;;;;;;6.30;5.70;;;;;;;;;;5131139;27;24927;-59
2021/09/10 11:57:43;;;;;;;5.85;5.45;;;;;;;;;;5130327;27;24938;-60
2021/09/10 12:00:26;;;;;;;5.80;5.40;;;;;;;;;;5131071;27;24416;-59
2021/09/10 12:02:55;;;;;;;6.65;6.15;;;;;;;;;;5129049;27;25011;-60
2021/09/10 12:05:20;;;;;;;8.80;7.90;;;;;;;;;;5130406;27;24424;-61
2021/09/10 12:07:48;;;;;;;7.50;6.80;;;;;;;;;;5114117;27;24447;-60
2021/09/10 12:10:25;;;;;;;7.40;6.90;;;;;;;;;;5110178;28;24884;-60
2021/09/10 12:13:06;;;;;;;8.05;7.45;;;;;;;;;;5110728;27;24449;-60
2021/09/10 12:15:31;;;;;;;9.10;8.40;;;;;;;;;;5109802;28;24449;-60
2021/09/10 12:18:05;;;;;;;8.43;7.63;;;;;;;;;;5110270;28;24429;-59
2021/09/10 12:20:30;;;;;;;8.33;7.53;;;;;;;;;;5109808;28;24760;-59
2021/09/10 12:22:56;;;;;;;8.00;7.20;;;;;;;;;;5109850;28;24413;-59
2021/09/10 12:25:22;;;;;;;8.02;7.32;;;;;;;;;;5110767;27;24463;-59
2021/09/10 12:27:53;;;;;;;7.07;6.47;;;;;;;;;;5109693;28;24751;-60
2021/09/10 12:30:19;;;;;;;7.15;6.55;;;;;;;;;;5109467;28;24464;-60
2021/09/10 12:32:44;;;;;;;6.28;5.72;;;;;;;;;;5110014;28;24481;-60
2021/09/10 12:35:10;;;;;;;6.13;5.63;;;;;;;;;;5109275;27;24532;-60
2021/09/10 12:37:35;;;;;;;6.07;5.57;;;;;;;;;;5109929;27;24451;-60
2021/09/10 12:40:02;;;;;;;6.23;5.63;;;;;;;;;;5107498;28;25011;-61
2021/09/10 12:42:27;;;;;;;5.72;5.32;;;;;;;;;;5108754;28;24394;-61
2021/09/10 12:44:52;;;;;;;5.70;5.30;;;;;;;;;;5108875;28;24788;-61
2021/09/10 12:47:18;;;;;;;5.93;5.53;;;;;;;;;;5110772;27;24461;-61
2021/09/10 12:49:43;;;;;;;5.60;5.20;;;;;;;;;;5128560;27;24413;-61
2021/09/10 12:52:08;;;;;;;6.43;6.00;;;;;;;;;;5109986;27;24429;-60
2021/09/10 12:54:34;;;;;;;7.30;6.60;;;;;;;;;;5110295;27;24459;-60
2021/09/10 12:56:59;;;;;;;5.95;5.45;;;;;;;;;;5109423;28;24497;-60
2021/09/10 12:59:24;;;;;;;5.60;5.10;;;;;;;;;;5108995;28;24807;-61
2021/09/10 13:01:49;;;;;;;5.50;5.00;;;;;;;;;;5109644;28;24530;-60
2021/09/10 13:04:15;;;;;;;5.40;5.00;;;;;;;;;;5109713;28;24780;-60
2021/09/10 13:06:40;;;;;;;5.60;5.10;;;;;;;;;;5109262;28;24426;-60
2021/09/10 13:09:06;;;;;;;5.60;5.20;;;;;;;;;;5119498;27;24407;-60
2021/09/10 13:11:31;;;;;;;6.07;5.47;;;;;;;;;;5113353;27;24813;-62
2021/09/10 13:13:58;;;;;;;5.90;5.30;;;;;;;;;;5122757;27;24463;-61
2021/09/10 13:16:23;;;;;;;6.22;5.63;;;;;;;;;;5095494;28;25020;-60
2021/09/10 13:18:48;;;;;;;6.28;5.68;;;;;;;;;;5108086;28;24429;-60
2021/09/10 13:21:14;;;;;;;5.88;5.47;;;;;;;;;;5108460;28;24795;-60
2021/09/10 13:23:39;;;;;;;5.15;4.85;;;;;;;;;;5107177;27;24513;-61
2021/09/10 13:26:04;;;;;;;5.90;5.50;;;;;;;;;;5108234;28;24449;-60
2021/09/10 13:28:29;;;;;;;5.40;4.90;;;;;;;;;;5108222;28;24947;-60
2021/09/10 13:30:54;;;;;;;5.63;5.13;;;;;;;;;;5107623;28;24656;-60
2021/09/10 13:33:19;;;;;;;5.25;4.90;;;;;;;;;;5105577;27;24453;-61
2021/09/10 13:35:44;;;;;;;4.90;4.50;;;;;;;;;;5104514;27;24478;-62
2021/09/10 13:38:10;;;;;;;6.00;5.60;;;;;;;;;;5106607;28;24988;-58
2021/09/10 13:40:35;;;;;;;6.40;5.80;;;;;;;;;;5108378;27;24417;-61
2021/09/10 13:43:00;;;;;;;6.00;5.50;;;;;;;;;;5106397;27;25020;-61
2021/09/10 13:45:25;;;;;;;5.90;5.40;;;;;;;;;;5107522;27;25180;-60
2021/09/10 13:47:51;;;;;;;5.80;5.30;;;;;;;;;;5107305;27;24526;-60
2021/09/10 13:50:17;;;;;;;6.53;5.93;;;;;;;;;;5087471;28;24425;-60
2021/09/10 13:52:43;;;;;;;5.50;5.10;;;;;;;;;;5105985;28;24417;-60
2021/09/10 13:55:08;;;;;;;5.00;4.70;;;;;;;;;;5105119;28;24417;-60
2021/09/10 13:57:34;;;;;;;6.30;5.80;;;;;;;;;;5102735;27;24569;-61
2021/09/10 13:59:59;;;;;;;5.80;5.40;;;;;;;;;;5105980;28;25202;-60
2021/09/10 14:02:24;;;;;;;6.00;5.50;;;;;;;;;;5104844;27;25112;-61
2021/09/10 14:04:49;;;;;;;5.40;5.00;;;;;;;;;;5102578;28;24423;-60
2021/09/10 14:07:15;;;;;;;5.20;4.80;;;;;;;;;;5105181;28;24454;-62
2021/09/10 14:09:40;;;;;;;4.75;4.45;;;;;;;;;;5107197;27;24513;-59
2021/09/10 14:12:05;;;;;;;4.70;4.40;;;;;;;;;;5106605;28;24764;-59
2021/09/10 14:14:30;;;;;;;4.80;4.50;;;;;;;;;;5105485;28;24990;-60
2021/09/10 14:16:55;;;;;;;4.63;4.32;;;;;;;;;;5106460;28;24501;-60
2021/09/10 14:19:21;;;;;;;5.00;4.70;;;;;;;;;;5103124;28;24449;-60
2021/09/10 14:21:46;;;;;;;5.97;5.50;;;;;;;;;;5107270;27;24444;-60
2021/09/10 14:24:11;;;;;;;5.87;5.37;;;;;;;;;;5107122;27;24448;-60
2021/09/10 14:26:36;;;;;;;5.72;5.32;;;;;;;;;;5108094;27;24970;-61
2021/09/10 14:29:01;;;;;;;5.70;5.30;;;;;;;;;;5106291;28;24911;-61
2021/09/10 14:31:27;;;;;;;5.50;5.10;;;;;;;;;;5106796;28;24405;-60
2021/09/10 14:33:53;;;;;;;6.00;5.60;;;;;;;;;;5107001;28;24414;-61
2021/09/10 14:36:19;;;;;;;5.63;5.27;;;;;;;;;;5107309;28;24463;-62